Time;durP1;ratioP1;P1;durP2;ratioP2;P2;SDS_P1;SDS_P2;PMS_P1;PMS_P2;Temp;Humidity;BMP_temperature;BMP_pressure;BME280_temperature;BME280_humidity;BME280_pressure;Samples;Min_cycle;Max_cycle;Signal;HPM_P1;HPM_P2
2023/03/26 00:00:22;;;;;;;2.90;2.70;;;;;;;15.68;80.58;94151.50;5029348;28;20222;-53
2023/03/26 00:02:49;;;;;;;3.13;2.93;;;;;;;15.75;80.74;94171.19;5031185;28;20253;-52
2023/03/26 00:05:16;;;;;;;4.63;2.90;;;;;;;15.74;80.71;94172.19;5029952;28;20187;-53
2023/03/26 00:07:42;;;;;;;2.73;2.53;;;;;;;15.71;80.84;94169.97;5022832;28;20646;-54
2023/03/26 00:10:10;;;;;;;2.50;2.30;;;;;;;15.67;80.46;94168.75;5031310;28;20203;-54
2023/03/26 00:12:38;;;;;;;2.63;2.27;;;;;;;15.64;80.53;94171.69;5031444;28;20199;-52
2023/03/26 00:15:06;;;;;;;3.23;2.30;;;;;;;15.64;80.62;94165.72;5031536;28;20188;-53
2023/03/26 00:17:33;;;;;;;2.40;2.20;;;;;;;15.62;80.64;94162.50;5028803;28;20903;-54
2023/03/26 00:20:00;;;;;;;2.80;2.60;;;;;;;15.59;80.55;94157.69;5029890;28;20219;-54
2023/03/26 00:22:26;;;;;;;2.57;2.37;;;;;;;15.57;80.58;94150.97;5031081;28;20253;-54
2023/03/26 00:24:55;;;;;;;2.50;2.30;;;;;;;15.55;80.64;94146.97;5031155;28;20190;-57
2023/03/26 00:27:22;;;;;;;2.10;1.90;;;;;;;15.54;80.59;94137.63;5027538;28;20636;-54
2023/03/26 00:29:50;;;;;;;2.73;2.33;;;;;;;15.50;80.51;94136.41;5012813;28;20672;-54
2023/03/26 00:32:17;;;;;;;2.07;1.97;;;;;;;15.49;80.51;94132.22;5010911;28;20192;-54
2023/03/26 00:34:45;;;;;;;1.97;1.87;;;;;;;15.46;80.70;94140.34;5011522;28;20189;-53
2023/03/26 00:37:13;;;;;;;2.27;2.10;;;;;;;15.44;80.63;94134.56;5011400;28;20189;-57
2023/03/26 00:39:41;;;;;;;1.93;1.80;;;;;;;15.42;80.74;94136.53;5019842;28;20219;-53
2023/03/26 00:42:08;;;;;;;2.27;2.13;;;;;;;15.38;80.66;94137.88;5010997;28;20239;-57
2023/03/26 00:44:35;;;;;;;2.17;1.97;;;;;;;15.38;80.57;94146.38;5010971;28;20659;-53
2023/03/26 00:47:03;;;;;;;1.93;1.83;;;;;;;15.36;80.61;94144.97;5010655;28;20250;-53
2023/03/26 00:49:30;;;;;;;2.00;1.90;;;;;;;15.33;80.49;94146.13;5017092;28;20258;-53
2023/03/26 00:51:57;;;;;;;2.00;1.90;;;;;;;15.31;80.55;94146.28;5008880;28;20246;-53
2023/03/26 00:54:24;;;;;;;2.07;1.97;;;;;;;15.28;80.42;94143.28;5010694;28;20345;-54
2023/03/26 00:56:54;;;;;;;2.10;2.00;;;;;;;15.28;80.67;94146.69;5010757;28;20592;-54
2023/03/26 00:59:21;;;;;;;2.23;2.10;;;;;;;15.18;80.67;94130.69;5014830;28;20206;-54
2023/03/26 01:01:48;;;;;;;1.83;1.73;;;;;;;15.23;80.53;94148.16;5029796;28;20222;-55
2023/03/26 01:04:29;;;;;;;1.60;1.50;;;;;;;15.20;80.44;94145.97;5029965;28;20256;-57
2023/03/26 01:06:57;;;;;;;1.70;1.60;;;;;;;14.93;80.37;94106.19;5028886;28;20187;-55
2023/03/26 01:09:31;;;;;;;1.70;1.60;;;;;;;15.15;80.44;94143.91;5028285;28;20283;-57
2023/03/26 01:11:59;;;;;;;1.80;1.70;;;;;;;15.12;80.15;94146.88;5029946;28;20731;-54
2023/03/26 01:14:27;;;;;;;1.93;1.73;;;;;;;15.10;80.20;94142.84;5029977;28;20191;-52
2023/03/26 01:16:56;;;;;;;1.80;1.70;;;;;;;15.09;80.23;94143.84;5028884;28;20200;-55
2023/03/26 01:19:29;;;;;;;1.70;1.60;;;;;;;15.05;80.03;94139.03;5028180;28;20189;-52
2023/03/26 01:21:57;;;;;;;1.73;1.63;;;;;;;15.03;79.90;94143.59;5016096;28;20315;-53
2023/03/26 01:24:26;;;;;;;1.43;1.33;;;;;;;15.00;80.00;94143.94;5011976;28;20196;-53
2023/03/26 01:27:09;;;;;;;1.47;1.43;;;;;;;14.97;79.88;94141.69;5030260;28;20180;-56
2023/03/26 01:29:43;;;;;;;1.63;1.53;;;;;;;14.94;79.94;94143.81;5029321;28;20191;-56
2023/03/26 01:32:23;;;;;;;1.67;1.57;;;;;;;14.93;80.03;94161.06;5020352;28;20202;-56
2023/03/26 01:35:12;;;;;;;3.73;1.70;;;;;;;14.89;80.03;94152.09;5029726;28;20195;-53
2023/03/26 01:37:51;;;;;;;1.90;1.80;;;;;;;14.90;80.26;94158.06;5029580;28;20267;-58
2023/03/26 01:40:26;;;;;;;1.70;1.50;;;;;;;14.88;79.96;94153.06;5028784;28;20191;-53
2023/03/26 01:43:00;;;;;;;1.60;1.50;;;;;;;14.89;80.23;94162.38;5018608;28;20187;-52
2023/03/26 01:45:31;;;;;;;1.67;1.57;;;;;;;14.89;80.04;94156.44;5029425;28;20192;-54
2023/03/26 01:47:59;;;;;;;1.40;1.40;;;;;;;14.89;80.05;94162.38;5029473;28;20188;-53
2023/03/26 01:50:25;;;;;;;1.80;1.70;;;;;;;14.89;79.95;94162.38;5012834;28;20258;-54
2023/03/26 01:52:52;;;;;;;1.50;1.40;;;;;;;14.90;80.07;94174.31;5016028;28;20277;-53
2023/03/26 01:55:22;;;;;;;1.57;1.47;;;;;;;14.91;80.13;94173.31;5029504;28;20196;-58
2023/03/26 01:57:59;;;;;;;1.50;1.40;;;;;;;14.92;80.10;94179.25;5029141;28;20194;-53
2023/03/26 02:00:29;;;;;;;1.60;1.50;;;;;;;14.92;80.19;94174.91;5029644;28;20187;-53
2023/03/26 02:03:16;;;;;;;1.80;1.70;;;;;;;14.93;80.14;94165.41;5026546;28;20218;-54
2023/03/26 02:05:49;;;;;;;1.40;1.40;;;;;;;14.91;80.37;94167.38;5009247;28;20192;-54
2023/03/26 02:08:23;;;;;;;1.20;1.20;;;;;;;14.88;80.16;94173.66;5008387;28;20200;-53
2023/03/26 02:10:57;;;;;;;2.43;1.50;;;;;;;14.84;79.96;94169.84;5008917;28;20206;-53
2023/03/26 02:13:25;;;;;;;1.80;1.70;;;;;;;14.81;80.06;94170.22;5010878;28;20346;-53
2023/03/26 02:15:57;;;;;;;1.50;1.40;;;;;;;14.78;79.83;94170.56;5028411;28;20314;-53
2023/03/26 02:18:24;;;;;;;1.70;1.60;;;;;;;14.74;79.71;94162.38;5028569;28;20195;-53
2023/03/26 02:20:51;;;;;;;1.60;1.50;;;;;;;14.72;79.83;94166.94;5028801;28;20379;-53
2023/03/26 02:23:20;;;;;;;2.20;1.60;;;;;;;14.69;79.86;94163.91;5027544;28;20251;-54
2023/03/26 02:25:46;;;;;;;1.30;1.30;;;;;;;14.66;79.75;94156.53;5015777;28;20231;-52
2023/03/26 02:28:15;;;;;;;1.47;1.40;;;;;;;14.65;79.70;94162.66;5009244;28;20636;-53
2023/03/26 02:30:46;;;;;;;2.07;1.40;;;;;;;14.64;79.55;94164.44;5009208;28;20196;-53
2023/03/26 02:33:14;;;;;;;1.70;1.60;;;;;;;14.66;79.48;94166.81;5027812;28;20214;-53
2023/03/26 02:35:43;;;;;;;1.80;1.70;;;;;;;14.67;79.78;94174.34;5027358;28;20283;-54
2023/03/26 02:38:13;;;;;;;1.80;1.70;;;;;;;14.68;79.63;94178.53;5029302;28;20639;-53
2023/03/26 02:40:41;;;;;;;1.60;1.60;;;;;;;14.64;79.77;94176.50;5028970;28;20667;-54
2023/03/26 02:43:08;;;;;;;1.47;1.40;;;;;;;14.23;79.73;94110.72;5028975;28;20199;-54
2023/03/26 02:45:36;;;;;;;2.93;1.50;;;;;;;14.72;79.64;94189.25;5026215;28;20648;-53
2023/03/26 02:48:03;;;;;;;1.67;1.57;;;;;;;14.73;79.81;94193.47;5008932;28;20242;-52
2023/03/26 02:50:35;;;;;;;1.50;1.40;;;;;;;14.72;79.55;94197.81;5009263;28;20184;-53
2023/03/26 02:53:02;;;;;;;1.50;1.40;;;;;;;14.72;79.69;94197.81;5009043;28;20290;-55
2023/03/26 02:55:29;;;;;;;1.50;1.50;;;;;;;14.72;79.66;94208.09;5013779;28;20185;-52
2023/03/26 02:57:56;;;;;;;1.87;1.77;;;;;;;14.73;79.57;94211.47;5027536;28;20706;-53
2023/03/26 03:00:24;;;;;;;1.50;1.50;;;;;;;14.73;79.60;94217.41;5032519;28;20282;-53
2023/03/26 03:02:52;;;;;;;1.63;1.53;;;;;;;14.74;79.72;94211.28;5032087;28;20286;-58
2023/03/26 03:05:19;;;;;;;1.80;1.70;;;;;;;14.60;79.69;94196.63;5032833;28;20188;-53
2023/03/26 03:07:46;;;;;;;1.40;1.40;;;;;;;14.75;79.66;94220.59;5022148;28;20695;-52
2023/03/26 03:10:14;;;;;;;1.70;1.60;;;;;;;14.74;79.53;94213.06;5012654;28;20568;-53
2023/03/26 03:12:41;;;;;;;1.70;1.60;;;;;;;14.62;79.29;94201.59;5012477;28;20189;-53
2023/03/26 03:15:09;;;;;;;1.70;1.60;;;;;;;14.69;79.24;94221.31;5012361;28;20188;-52
2023/03/26 03:17:36;;;;;;;1.57;1.57;;;;;;;14.66;79.12;94226.81;5012735;28;20879;-54
2023/03/26 03:20:08;;;;;;;1.70;1.60;;;;;;;14.53;79.06;94206.00;5012680;28;20503;-53
2023/03/26 03:22:35;;;;;;;1.43;1.40;;;;;;;14.61;79.00;94226.53;5012018;28;20234;-53
2023/03/26 03:25:02;;;;;;;1.37;1.37;;;;;;;14.57;78.83;94225.28;5012826;28;20185;-53
2023/03/26 03:27:29;;;;;;;1.70;1.60;;;;;;;14.52;78.78;94225.00;5013395;28;20193;-54
2023/03/26 03:29:57;;;;;;;1.90;1.80;;;;;;;14.46;78.70;94228.22;5027113;28;20196;-54
2023/03/26 03:32:25;;;;;;;1.70;1.60;;;;;;;14.45;78.40;94221.47;5032075;28;20255;-55
2023/03/26 03:34:51;;;;;;;1.63;1.53;;;;;;;14.41;78.44;94221.00;5031848;28;20675;-55
2023/03/26 03:37:20;;;;;;;1.70;1.60;;;;;;;14.35;78.05;94214.00;5032062;28;20763;-52
2023/03/26 03:39:47;;;;;;;1.60;1.50;;;;;;;14.36;77.80;94213.03;5021653;28;20188;-54
2023/03/26 03:42:13;;;;;;;1.80;1.53;;;;;;;14.31;77.90;94202.44;5029114;28;20212;-53
2023/03/26 03:44:40;;;;;;;1.73;1.63;;;;;;;14.29;78.14;94207.78;5027929;28;20203;-52
2023/03/26 03:47:09;;;;;;;3.30;2.10;;;;;;;14.25;77.91;94201.38;5011726;28;20258;-52
2023/03/26 03:49:36;;;;;;;1.80;1.70;;;;;;;14.21;77.82;94194.19;5011775;28;20184;-53
2023/03/26 03:52:03;;;;;;;1.67;1.60;;;;;;;13.74;77.98;94138.59;5011942;28;20227;-52
2023/03/26 03:54:31;;;;;;;2.10;1.93;;;;;;;14.15;77.98;94205.13;5011529;28;20240;-52
2023/03/26 03:56:58;;;;;;;2.10;2.00;;;;;;;14.12;77.50;94206.28;5022161;28;20184;-53
2023/03/26 03:59:25;;;;;;;2.43;1.90;;;;;;;14.10;77.70;94213.38;5011895;28;20203;-54
2023/03/26 04:01:52;;;;;;;2.20;2.00;;;;;;;14.08;77.78;94209.38;5011224;28;20636;-52
2023/03/26 04:04:20;;;;;;;2.23;2.03;;;;;;;14.06;77.53;94202.63;5011345;28;20596;-53
2023/03/26 04:06:47;;;;;;;2.53;1.90;;;;;;;14.05;77.54;94210.50;5012019;28;20196;-52
2023/03/26 04:09:13;;;;;;;2.13;2.03;;;;;;;14.03;77.56;94215.84;5013286;28;20192;-52
2023/03/26 04:11:41;;;;;;;2.30;2.10;;;;;;;13.99;77.64;94224.06;5030994;28;20261;-53
2023/03/26 04:14:09;;;;;;;2.30;2.20;;;;;;;13.93;77.78;94228.09;5031416;28;20214;-52
2023/03/26 04:16:35;;;;;;;2.20;2.10;;;;;;;13.97;77.88;94241.41;5029178;28;20191;-53
2023/03/26 04:19:02;;;;;;;2.10;2.00;;;;;;;13.97;77.77;94247.34;5016957;28;20592;-53
2023/03/26 04:21:30;;;;;;;2.33;2.23;;;;;;;13.97;78.13;94255.06;5030902;28;20284;-54
2023/03/26 04:23:57;;;;;;;2.47;2.27;;;;;;;13.96;78.16;94263.75;5029413;28;20636;-54
2023/03/26 04:26:24;;;;;;;2.60;2.40;;;;;;;13.97;77.92;94267.91;5011352;28;20645;-52
2023/03/26 04:28:56;;;;;;;2.67;2.47;;;;;;;13.99;78.12;94270.34;5012163;28;20575;-52
2023/03/26 04:31:27;;;;;;;2.33;2.23;;;;;;;13.99;77.84;94278.84;5020775;28;20192;-53
2023/03/26 04:33:58;;;;;;;2.20;2.10;;;;;;;14.01;77.97;94284.59;5018263;28;20287;-54
2023/03/26 04:36:30;;;;;;;2.57;2.37;;;;;;;14.02;77.94;94290.53;5028607;28;20191;-52
2023/03/26 04:39:01;;;;;;;2.30;2.20;;;;;;;14.03;78.16;94300.69;5030974;28;20188;-56
2023/03/26 04:41:28;;;;;;;5.73;2.13;;;;;;;14.04;78.17;94299.69;5028541;28;20192;-55
2023/03/26 04:43:56;;;;;;;2.40;2.20;;;;;;;14.04;78.03;94302.28;5013029;28;20188;-52
2023/03/26 04:46:23;;;;;;;2.60;2.40;;;;;;;14.11;78.29;94317.81;5010729;28;20193;-56
2023/03/26 04:48:51;;;;;;;2.50;2.30;;;;;;;14.12;78.15;94309.16;5021739;28;20192;-52
2023/03/26 04:51:20;;;;;;;2.80;2.60;;;;;;;14.15;77.90;94313.94;5028396;28;20214;-51
2023/03/26 04:53:52;;;;;;;2.30;2.20;;;;;;;14.22;77.81;94322.59;5030092;28;20227;-52
2023/03/26 04:56:33;;;;;;;2.70;2.50;;;;;;;14.26;78.10;94317.91;5030423;28;20254;-52
2023/03/26 04:59:02;;;;;;;2.60;2.40;;;;;;;14.24;77.75;94302.63;5030510;28;20219;-52
2023/03/26 05:01:29;;;;;;;2.90;2.70;;;;;;;14.36;77.75;94321.06;5029584;28;20192;-55
2023/03/26 05:03:57;;;;;;;2.97;2.70;;;;;;;14.51;77.19;94319.41;5013676;28;20177;-52
2023/03/26 05:06:26;;;;;;;2.67;2.47;;;;;;;14.75;76.48;94321.00;5011119;28;20215;-52
2023/03/26 05:08:53;;;;;;;2.80;2.60;;;;;;;15.09;75.69;94318.97;5010913;28;20196;-53
2023/03/26 05:11:20;;;;;;;3.07;2.87;;;;;;;15.57;75.95;94333.94;5010846;28;20192;-52
2023/03/26 05:13:47;;;;;;;2.87;2.57;;;;;;;16.14;77.28;94329.16;5011964;28;20184;-55
2023/03/26 05:16:15;;;;;;;3.40;3.07;;;;;;;16.75;78.69;94329.63;5010651;28;20203;-53
2023/03/26 05:18:42;;;;;;;3.13;2.93;;;;;;;17.26;78.51;94334.63;4992614;28;20199;-55
2023/03/26 05:21:09;;;;;;;2.93;2.73;;;;;;;17.81;79.19;94325.28;5010839;28;20192;-56
2023/03/26 05:23:36;;;;;;;3.90;3.00;;;;;;;18.39;79.07;94332.69;5011323;28;20259;-52
2023/03/26 05:26:03;;;;;;;2.97;2.77;;;;;;;18.85;78.66;94345.00;5023887;28;20663;-51
2023/03/26 05:28:30;;;;;;;3.60;3.30;;;;;;;19.35;78.50;94341.03;5030539;28;20206;-55
2023/03/26 05:30:57;;;;;;;3.60;3.07;;;;;;;19.97;79.36;94333.78;5029717;28;20183;-52
2023/03/26 05:33:25;;;;;;;4.07;3.30;;;;;;;20.70;80.27;94339.50;5030011;28;20254;-53
2023/03/26 05:35:59;;;;;;;3.63;3.33;;;;;;;21.53;80.58;94344.53;5028173;28;20195;-53
2023/03/26 05:38:27;;;;;;;3.57;3.30;;;;;;;22.23;79.77;94338.22;5029587;28;20195;-53
2023/03/26 05:40:58;;;;;;;3.07;2.87;;;;;;;22.82;79.29;94335.91;5029993;28;20207;-54
2023/03/26 05:43:24;;;;;;;3.08;2.88;;;;;;;23.62;78.69;94343.31;5029493;28;20216;-53
2023/03/26 05:45:51;;;;;;;3.10;2.90;;;;;;;24.35;77.69;94353.25;5027805;28;20274;-58
2023/03/26 05:48:19;;;;;;;3.38;3.08;;;;;;;25.13;77.35;94354.50;5029324;28;20245;-58
2023/03/26 05:50:49;;;;;;;3.20;3.00;;;;;;;25.91;76.10;94359.91;5029938;28;20183;-53
2023/03/26 05:53:17;;;;;;;3.03;2.83;;;;;;;26.60;74.96;94368.16;5027474;28;20250;-54
2023/03/26 05:55:45;;;;;;;3.30;3.10;;;;;;;27.27;73.83;94359.13;5027964;28;20653;-54
2023/03/26 05:58:13;;;;;;;2.88;2.67;;;;;;;27.84;72.22;94352.47;5028726;28;20252;-55
2023/03/26 06:00:40;;;;;;;3.05;2.85;;;;;;;28.44;71.15;94352.00;5029324;28;20199;-54
2023/03/26 06:03:11;;;;;;;3.08;2.88;;;;;;;29.06;70.66;94357.47;5025960;28;20219;-53
2023/03/26 06:05:39;;;;;;;2.92;2.72;;;;;;;29.71;69.68;94358.59;5016310;28;20243;-54
2023/03/26 06:08:07;;;;;;;2.90;2.70;;;;;;;30.37;68.46;94360.31;5017550;28;20201;-54
2023/03/26 06:10:37;;;;;;;3.83;2.80;;;;;;;31.05;67.25;94357.13;5020295;28;20670;-58
2023/03/26 06:13:04;;;;;;;2.80;2.60;;;;;;;31.67;65.84;94356.41;5030063;28;20179;-56
2023/03/26 06:15:31;;;;;;;2.90;2.70;;;;;;;32.20;64.72;94350.34;5029156;28;20713;-55
2023/03/26 06:17:58;;;;;;;3.00;2.70;;;;;;;32.72;63.64;94359.28;5029498;28;20199;-58
2023/03/26 06:20:25;;;;;;;3.28;2.97;;;;;;;33.30;62.69;94352.97;5029180;28;20203;-57
2023/03/26 06:22:51;;;;;;;2.83;2.63;;;;;;;33.82;62.03;94353.75;5029574;28;20215;-54
2023/03/26 06:25:20;;;;;;;2.55;2.40;;;;;;;34.27;60.95;94341.50;5011443;28;20250;-57
2023/03/26 06:27:47;;;;;;;2.78;2.58;;;;;;;34.90;59.67;94355.94;5008974;28;20796;-54
2023/03/26 06:30:14;;;;;;;3.20;3.00;;;;;;;35.40;58.39;94355.88;5009357;28;20718;-55
2023/03/26 06:32:41;;;;;;;2.80;2.60;;;;;;;35.89;57.45;94354.19;5009662;28;20192;-56
2023/03/26 06:35:08;;;;;;;3.13;2.47;;;;;;;36.31;56.92;94347.50;5009597;28;20604;-53
2023/03/26 06:37:35;;;;;;;2.45;2.30;;;;;;;36.56;55.93;94345.25;5020382;28;20199;-54
2023/03/26 06:40:02;;;;;;;6.63;2.60;;;;;;;36.81;55.06;94357.84;5012656;28;20200;-55
2023/03/26 06:42:30;;;;;;;2.85;2.65;;;;;;;37.07;54.48;94360.56;5006928;28;20238;-58
2023/03/26 06:44:57;;;;;;;2.78;2.58;;;;;;;37.33;53.38;94349.13;5007123;28;20652;-55
2023/03/26 06:47:23;;;;;;;2.47;2.28;;;;;;;37.60;53.14;94348.00;5006563;28;20196;-55
2023/03/26 06:49:50;;;;;;;2.53;2.33;;;;;;;37.89;52.57;94353.47;5006363;28;20212;-57
2023/03/26 06:52:17;;;;;;;2.95;2.75;;;;;;;38.23;52.45;94359.03;5006682;28;20285;-55
2023/03/26 06:54:44;;;;;;;3.08;2.67;;;;;;;38.55;51.52;94368.31;5006801;28;20195;-56
2023/03/26 06:57:11;;;;;;;2.85;2.65;;;;;;;38.83;51.08;94369.47;5023835;28;20188;-55
2023/03/26 06:59:39;;;;;;;7.57;1.85;;;;;;;38.54;36.39;94374.78;5026549;28;20576;-56
2023/03/26 07:02:06;;;;;;;4.75;2.15;;;;;;;37.94;38.22;94381.88;5026259;28;20188;-56
2023/03/26 07:04:32;;;;;;;2.63;2.42;;;;;;;37.33;37.68;94376.56;5026695;28;20192;-56
2023/03/26 07:06:59;;;;;;;5.95;2.13;;;;;;;36.82;37.43;94375.41;5017809;28;20267;-57
2023/03/26 07:09:29;;;;;;;3.35;2.25;;;;;;;36.37;37.12;94372.91;5007125;28;20218;-54
2023/03/26 07:11:56;;;;;;;2.83;2.33;;;;;;;36.02;37.15;94368.53;5006789;28;20196;-56
2023/03/26 07:14:23;;;;;;;2.30;2.10;;;;;;;35.72;37.38;94375.41;5012639;28;20196;-55
2023/03/26 07:16:53;;;;;;;15.02;3.42;;;;;;;35.33;37.23;94366.19;5026183;28;20200;-56
2023/03/26 07:19:20;;;;;;;10.65;2.38;;;;;;;34.86;37.40;94331.81;5026567;28;20216;-62
2023/03/26 07:21:47;;;;;;;5.07;2.70;;;;;;;34.86;36.67;94376.22;5026236;28;20211;-61
2023/03/26 07:24:15;;;;;;;3.67;2.85;;;;;;;34.55;36.12;94374.19;5025194;28;20627;-60
2023/03/26 07:26:51;;;;;;;3.53;2.72;;;;;;;34.24;35.96;94376.59;5026896;28;20253;-54
2023/03/26 07:29:26;;;;;;;2.90;2.70;;;;;;;33.99;36.21;94366.47;5025883;28;20647;-53
2023/03/26 07:32:03;;;;;;;15.40;3.30;;;;;;;33.77;36.24;94356.47;5009170;28;20188;-55
2023/03/26 07:34:43;;;;;;;3.13;2.70;;;;;;;33.55;36.58;94349.94;5006352;28;20208;-56
2023/03/26 07:37:19;;;;;;;3.33;2.97;;;;;;;33.37;36.45;94353.38;5006226;28;20240;-55
2023/03/26 07:39:52;;;;;;;3.20;2.97;;;;;;;33.18;36.53;94350.75;5006486;28;20628;-54
2023/03/26 07:42:33;;;;;;;5.22;2.95;;;;;;;33.04;36.42;94349.91;5009447;28;20203;-55
2023/03/26 07:45:10;;;;;;;3.42;3.00;;;;;;;32.89;36.49;94348.22;5014627;28;20202;-55
2023/03/26 07:47:41;;;;;;;2.78;2.58;;;;;;;32.72;36.76;94344.19;5029207;28;20195;-55
2023/03/26 07:50:15;;;;;;;9.77;3.35;;;;;;;32.57;36.90;94348.91;5015531;28;20188;-55
2023/03/26 07:52:42;;;;;;;4.22;3.05;;;;;;;32.45;37.05;94346.66;5027162;28;20788;-56
2023/03/26 07:55:13;;;;;;;2.95;2.70;;;;;;;32.18;37.80;94329.47;5027457;28;20188;-57
2023/03/26 07:57:48;;;;;;;3.22;3.03;;;;;;;32.27;38.27;94342.09;5010044;28;20193;-57
2023/03/26 08:00:20;;;;;;;4.97;3.30;;;;;;;32.19;38.84;94344.28;5009823;28;20196;-57
2023/03/26 08:03:19;;;;;;;6.00;3.33;;;;;;;32.10;39.49;94338.03;5009077;28;20238;-55
2023/03/26 08:05:56;;;;;;;6.88;3.20;;;;;;;32.00;39.22;94338.16;5015819;28;20195;-55
2023/03/26 08:08:30;;;;;;;7.28;2.75;;;;;;;31.88;38.79;94325.28;5026075;28;20199;-57
2023/03/26 08:11:09;;;;;;;5.10;2.90;;;;;;;31.75;38.64;94327.78;5016291;28;20180;-55
2023/03/26 08:13:55;;;;;;;5.40;2.78;;;;;;;31.66;38.98;94332.88;5026213;28;20195;-56
2023/03/26 08:16:27;;;;;;;13.35;2.88;;;;;;;31.55;39.15;94332.19;5022739;28;20660;-56
2023/03/26 08:19:02;;;;;;;4.70;2.47;;;;;;;31.42;39.63;94336.25;5022959;28;20196;-58
2023/03/26 08:21:34;;;;;;;6.63;3.05;;;;;;;31.33;40.14;94340.56;5023531;28;20306;-58
2023/03/26 08:24:05;;;;;;;5.85;2.78;;;;;;;31.22;40.44;94328.47;5009279;28;20239;-57
2023/03/26 08:26:44;;;;;;;9.02;2.92;;;;;;;31.12;40.61;94336.44;5009906;28;20203;-56
2023/03/26 08:29:25;;;;;;;8.00;2.97;;;;;;;31.00;40.51;94344.72;5021360;28;20302;-57
2023/03/26 08:31:53;;;;;;;3.30;2.90;;;;;;;30.93;40.70;94345.03;5022600;28;20199;-56
2023/03/26 08:34:21;;;;;;;6.28;2.60;;;;;;;31.07;41.10;94342.56;5030332;28;20203;-58
2023/03/26 08:36:48;;;;;;;2.70;2.40;;;;;;;31.30;41.26;94348.25;5031104;28;20286;-56
2023/03/26 08:39:15;;;;;;;6.00;3.00;;;;;;;31.50;41.80;94344.66;5030776;28;20683;-57
2023/03/26 08:42:15;;;;;;;5.75;2.38;;;;;;;31.67;41.70;94340.53;5031101;28;20282;-57
2023/03/26 08:45:14;;;;;;;6.80;2.78;;;;;;;31.85;41.89;94343.56;5031235;28;20231;-60
2023/03/26 08:48:10;;;;;;;8.20;2.70;;;;;;;31.97;41.92;94338.69;5022946;28;20664;-57
2023/03/26 08:50:58;;;;;;;8.18;2.30;;;;;;;32.05;41.86;94342.59;5010959;28;20199;-58
2023/03/26 08:53:48;;;;;;;2.88;2.13;;;;;;;32.05;41.89;94340.72;5011149;28;20236;-57
2023/03/26 08:56:24;;;;;;;2.25;2.13;;;;;;;32.05;41.85;94346.03;5009884;28;20207;-58
2023/03/26 08:59:27;;;;;;;4.10;2.80;;;;;;;32.05;41.70;94348.66;5010419;28;20275;-58
2023/03/26 09:02:25;;;;;;;4.18;2.50;;;;;;;31.99;41.45;94347.13;5011287;28;20580;-57
2023/03/26 09:05:39;;;;;;;2.47;2.25;;;;;;;31.98;41.78;94343.69;5011404;28;20230;-58
2023/03/26 09:08:32;;;;;;;2.85;2.10;;;;;;;31.86;41.67;94332.69;5011000;28;20200;-56
2023/03/26 09:11:17;;;;;;;2.60;2.40;;;;;;;31.74;42.24;94332.28;5010867;28;20219;-58
2023/03/26 09:14:26;;;;;;;5.30;2.28;;;;;;;31.66;42.36;94333.69;5010843;28;20188;-57
2023/03/26 09:17:35;;;;;;;2.35;2.22;;;;;;;31.53;42.55;94334.31;4949979;29;20198;-57
2023/03/26 09:20:47;;;;;;;3.58;2.20;;;;;;;31.36;42.05;94328.66;4931034;29;20198;-56
2023/03/26 09:23:41;;;;;;;2.97;2.50;;;;;;;31.18;41.88;94322.16;4873435;29;20335;-56
2023/03/26 09:26:28;;;;;;;2.13;1.88;;;;;;;31.01;42.08;94327.81;4874267;29;20193;-57
2023/03/26 09:29:48;;;;;;;3.20;2.35;;;;;;;30.82;41.95;94326.88;4874166;29;20208;-58
2023/03/26 09:32:47;;;;;;;2.10;1.85;;;;;;;30.59;41.61;94330.94;4855564;29;20602;-59
2023/03/26 09:35:33;;;;;;;3.35;2.25;;;;;;;30.37;41.77;94313.59;4781060;30;20207;-58
2023/03/26 09:38:02;;;;;;;2.20;2.08;;;;;;;30.22;41.54;94332.13;4782370;30;20751;-58
2023/03/26 09:40:38;;;;;;;2.42;2.10;;;;;;;29.98;41.59;94332.69;4782655;30;20201;-57
2023/03/26 09:43:40;;;;;;;2.08;1.88;;;;;;;29.71;41.08;94319.84;4782445;30;20200;-56
2023/03/26 09:46:21;;;;;;;2.38;2.10;;;;;;;29.49;41.20;94320.09;4782227;29;20757;-57
2023/03/26 09:49:21;;;;;;;2.15;1.95;;;;;;;29.24;40.96;94306.94;4780581;30;20211;-56
2023/03/26 09:52:10;;;;;;;1.77;1.67;;;;;;;29.06;40.96;94308.25;4814246;29;20202;-60
2023/03/26 09:55:19;;;;;;;1.70;1.60;;;;;;;28.84;40.89;94310.28;4817498;29;20199;-57
2023/03/26 09:58:06;;;;;;;2.08;1.88;;;;;;;28.57;40.78;94303.38;4800890;29;20196;-58
2023/03/26 10:00:40;;;;;;;2.13;2.03;;;;;;;28.43;40.75;94303.09;4829646;29;20612;-57
2023/03/26 10:03:20;;;;;;;2.10;2.00;;;;;;;28.26;41.19;94292.75;4854142;29;20570;-56
2023/03/26 10:06:02;;;;;;;2.40;2.15;;;;;;;28.09;41.02;94304.50;4855111;29;20773;-61
2023/03/26 10:08:43;;;;;;;1.95;1.85;;;;;;;27.89;40.95;94295.50;4886135;29;20235;-56
2023/03/26 10:11:18;;;;;;;4.47;2.25;;;;;;;27.66;40.89;94286.13;4910945;29;20199;-59
2023/03/26 10:13:58;;;;;;;1.95;1.85;;;;;;;27.46;41.03;94286.78;5007923;28;20265;-55
2023/03/26 10:16:35;;;;;;;1.88;1.77;;;;;;;27.30;41.45;94271.97;5009623;28;20231;-58
2023/03/26 10:19:20;;;;;;;2.05;1.88;;;;;;;26.79;41.29;94210.38;5009390;28;20196;-59
2023/03/26 10:21:57;;;;;;;1.80;1.70;;;;;;;27.00;41.66;94259.38;5009343;28;20181;-56
2023/03/26 10:24:39;;;;;;;2.10;1.92;;;;;;;26.83;41.23;94256.06;5009507;28;20322;-57
2023/03/26 10:27:23;;;;;;;2.15;1.92;;;;;;;26.69;41.40;94264.34;5009419;28;20188;-57
2023/03/26 10:30:18;;;;;;;1.90;1.80;;;;;;;26.56;41.40;94245.63;5009268;28;20278;-58
2023/03/26 10:32:57;;;;;;;2.08;1.88;;;;;;;26.40;41.85;94236.75;5009386;28;20192;-59
2023/03/26 10:35:39;;;;;;;2.10;1.70;;;;;;;26.30;41.50;94245.31;5009371;28;20258;-56
2023/03/26 10:38:15;;;;;;;1.77;1.67;;;;;;;26.17;41.47;94246.50;5008086;28;20573;-57
2023/03/26 10:40:54;;;;;;;1.90;1.80;;;;;;;26.06;41.54;94239.53;5008879;28;20644;-60
2023/03/26 10:43:41;;;;;;;1.98;1.50;;;;;;;25.95;41.57;94237.81;5009365;28;20559;-56
2023/03/26 10:46:30;;;;;;;3.08;1.80;;;;;;;25.83;41.62;94235.34;5009064;28;20638;-56
2023/03/26 10:49:28;;;;;;;1.65;1.55;;;;;;;25.73;41.49;94220.28;5009281;28;20638;-58
2023/03/26 10:51:58;;;;;;;1.80;1.70;;;;;;;25.64;41.90;94226.16;5009357;28;20201;-60
2023/03/26 10:54:36;;;;;;;2.15;1.95;;;;;;;25.55;41.83;94222.38;5009196;28;20243;-56
2023/03/26 10:57:11;;;;;;;1.70;1.60;;;;;;;25.45;41.74;94221.22;5009330;28;20701;-57
2023/03/26 10:59:38;;;;;;;1.60;1.50;;;;;;;25.37;41.93;94221.63;5009209;28;20194;-56
2023/03/26 11:02:26;;;;;;;1.90;1.80;;;;;;;25.29;41.97;94216.78;5009990;28;20189;-55
2023/03/26 11:05:01;;;;;;;2.72;1.80;;;;;;;25.22;41.90;94219.59;5007643;28;20322;-57
2023/03/26 11:07:36;;;;;;;1.85;1.73;;;;;;;25.14;41.85;94212.16;5009733;28;20271;-57
2023/03/26 11:10:08;;;;;;;1.60;1.50;;;;;;;25.07;41.58;94218.53;5008920;28;20188;-57
2023/03/26 11:12:42;;;;;;;1.50;1.40;;;;;;;24.98;41.39;94203.22;5009196;28;20240;-59
2023/03/26 11:15:20;;;;;;;1.70;1.60;;;;;;;24.91;41.88;94218.28;5011035;28;20192;-56
2023/03/26 11:17:58;;;;;;;1.77;1.67;;;;;;;24.85;41.76;94215.84;5012781;28;20199;-58
2023/03/26 11:20:35;;;;;;;1.65;1.55;;;;;;;24.75;41.81;94201.59;5012668;28;20188;-57
2023/03/26 11:23:27;;;;;;;1.48;1.38;;;;;;;24.66;41.51;94189.16;5012661;28;20205;-56
2023/03/26 11:26:11;;;;;;;3.50;1.67;;;;;;;24.58;41.25;94189.53;5012805;28;21059;-53
2023/03/26 11:29:02;;;;;;;1.60;1.50;;;;;;;24.52;41.53;94192.06;5011077;28;20345;-57
2023/03/26 11:31:40;;;;;;;1.88;1.58;;;;;;;24.47;41.68;94178.09;5012905;28;20196;-57
2023/03/26 11:34:15;;;;;;;3.88;1.77;;;;;;;24.34;41.41;94186.22;5012580;28;20204;-56
2023/03/26 11:36:46;;;;;;;1.88;1.70;;;;;;;24.29;41.23;94179.88;5012398;28;20217;-57
2023/03/26 11:39:18;;;;;;;1.75;1.65;;;;;;;24.15;41.32;94164.72;5012429;28;20196;-55
2023/03/26 11:41:46;;;;;;;1.40;1.40;;;;;;;24.19;41.33;94178.91;5012204;28;20200;-57
2023/03/26 11:44:21;;;;;;;1.58;1.48;;;;;;;24.13;41.15;94161.53;5012492;28;20224;-57
2023/03/26 11:46:52;;;;;;;1.42;1.35;;;;;;;24.06;41.61;94153.06;5012204;28;20222;-56
2023/03/26 11:49:22;;;;;;;1.80;1.70;;;;;;;24.01;41.65;94154.56;5012225;28;20565;-56
2023/03/26 11:51:49;;;;;;;1.60;1.48;;;;;;;23.97;41.67;94147.44;5012045;28;20208;-55
2023/03/26 11:54:16;;;;;;;2.03;1.60;;;;;;;23.94;41.55;94140.06;5012242;28;20683;-54
2023/03/26 11:56:48;;;;;;;1.88;1.70;;;;;;;23.89;41.69;94134.75;5012069;28;20631;-56
2023/03/26 11:59:17;;;;;;;1.52;1.40;;;;;;;23.86;41.64;94130.78;5012158;28;20200;-57
2023/03/26 12:01:50;;;;;;;1.55;1.45;;;;;;;23.81;41.74;94127.28;5011881;28;20196;-58